Terminal Aerodrome Forecast
Issued by NWS

Home | Current Version | Previous Version | Text Only | Print | Product List | Glossary On
Versions: 1 2 3 4 5 6 7 8 9 10 11 12 13 14 15 16 17 18 19
000
FTUS41 KGYX 240903 AAA
TAFHIE
TAF AMD
KHIE 240903Z 2409/2506 03005KT 5SM -RA BKN012 OVC035
      TEMPO 2409/2411 BKN007 OVC012
     FM241300 34006KT P6SM BKN025 OVC040
     FM241800 33005KT P6SM SCT025 BKN040 OVC070=

USA.gov is the U.S. government's official web portal to all federal, state and local government web resources and services.